createdAt,value
2019-02-10T00:07:25.548Z,6.00
2019-02-10T00:21:47.104Z,6.00
2019-02-10T00:32:12.943Z,5.90
2019-02-10T00:33:09.841Z,6.00
2019-02-10T01:10:14.489Z,5.70
2019-02-10T01:13:27.248Z,5.80
2019-02-10T01:16:04.405Z,5.80
2019-02-10T01:20:00.509Z,5.90
2019-02-10T01:23:58.170Z,5.90
2019-02-10T01:34:18.498Z,5.80
2019-02-10T01:37:15.939Z,5.70
2019-02-10T01:41:00.686Z,5.70
2019-02-10T01:44:41.202Z,5.60
2019-02-10T01:52:26.505Z,5.60
2019-02-10T01:56:02.316Z,5.50
2019-02-10T01:59:02.104Z,5.30
2019-02-10T02:02:29.185Z,5.20
2019-02-10T02:05:24.217Z,5.00
2019-02-10T02:08:54.454Z,4.80
2019-02-10T02:11:30.920Z,4.70
2019-02-10T02:14:57.678Z,4.60
2019-02-10T02:20:59.750Z,4.60
2019-02-10T02:24:43.547Z,4.80
2019-02-10T02:31:52.797Z,4.60
2019-02-10T02:38:09.289Z,4.30
2019-02-10T02:41:10.609Z,4.20
2019-02-10T02:44:54.943Z,4.30
2019-02-10T02:50:57.871Z,4.30
2019-02-10T02:54:22.951Z,4.20
2019-02-10T02:57:48.534Z,3.90
2019-02-10T03:04:21.027Z,3.60
2019-02-10T03:10:59.848Z,3.90
2019-02-10T03:14:16.004Z,3.80
2019-02-10T03:18:59.515Z,3.90
2019-02-10T03:20:50.841Z,4.40
2019-02-10T03:23:59.450Z,4.40
2019-02-10T03:27:20.936Z,4.50
2019-02-10T03:30:57.155Z,4.50
2019-02-10T03:34:02.895Z,4.30
2019-02-10T03:37:26.833Z,4.60
2019-02-10T03:40:55.160Z,4.50
2019-02-10T03:47:05.714Z,4.00
2019-02-10T03:50:41.013Z,3.90
2019-02-10T03:53:41.747Z,3.70
2019-02-10T03:56:14.311Z,3.60
2019-02-10T03:58:52.461Z,3.40
2019-02-10T04:02:30.587Z,3.30
2019-02-10T04:05:14.626Z,3.20
2019-02-10T04:07:53.682Z,3.00
2019-02-10T04:10:38.016Z,3.00
2019-02-10T04:13:35.765Z,3.00
2019-02-10T04:16:19.884Z,3.00
2019-02-10T04:19:09.605Z,3.10
2019-02-10T04:22:06.608Z,3.10
2019-02-10T04:24:55.706Z,3.30
2019-02-10T04:28:07.162Z,3.50
2019-02-10T04:30:59.855Z,3.50
2019-02-10T04:33:40.650Z,3.60
2019-02-10T04:37:08.702Z,3.70
2019-02-10T04:40:07.614Z,3.80
2019-02-10T04:46:44.599Z,4.00
2019-02-10T04:53:50.085Z,3.90
2019-02-10T04:56:37.340Z,3.90
2019-02-10T04:59:58.208Z,3.90
2019-02-10T05:03:09.416Z,3.80
2019-02-10T05:09:59.959Z,3.90
2019-02-10T05:13:15.405Z,4.10
2019-02-10T05:28:09.641Z,4.90
2019-02-10T05:35:35.970Z,5.20
2019-02-10T05:42:08.842Z,5.40
2019-02-10T05:44:37.635Z,5.30
2019-02-10T05:47:06.453Z,5.50
2019-02-10T05:49:35.231Z,5.50
2019-02-10T05:52:04.081Z,5.50
2019-02-10T05:54:32.807Z,5.60
2019-02-10T05:57:01.832Z,5.70
2019-02-10T05:59:30.848Z,5.80
2019-02-10T06:02:16.099Z,5.80
2019-02-10T06:04:44.916Z,5.80
2019-02-10T06:07:16.513Z,5.80
2019-02-10T06:09:45.977Z,5.80
2019-02-10T06:12:14.735Z,5.80
2019-02-10T06:14:43.796Z,5.80
2019-02-10T06:17:12.552Z,5.80
2019-02-10T06:19:41.569Z,5.70
2019-02-10T06:22:10.330Z,5.70
2019-02-10T06:24:39.117Z,5.60
2019-02-10T06:27:08.117Z,5.60
2019-02-10T06:29:36.971Z,5.50
2019-02-10T06:32:05.878Z,5.40
2019-02-10T06:34:34.660Z,5.40
2019-02-10T06:37:03.638Z,5.50
2019-02-10T06:39:32.383Z,5.50
2019-02-10T06:42:01.133Z,5.50
2019-02-10T06:44:29.851Z,5.50
2019-02-10T06:46:58.859Z,5.50
2019-02-10T06:49:27.626Z,5.50
2019-02-10T06:51:56.394Z,5.50
2019-02-10T06:54:26.616Z,5.50
2019-02-10T06:56:55.398Z,5.50
2019-02-10T06:59:44.408Z,5.50
2019-02-10T07:02:32.249Z,5.50
2019-02-10T07:05:01.316Z,5.60
2019-02-10T07:07:30.066Z,5.70
2019-02-10T07:09:58.927Z,5.70
2019-02-10T07:12:46.039Z,5.70
2019-02-10T07:15:50.905Z,5.70
2019-02-10T07:18:55.711Z,5.70
2019-02-10T07:21:26.506Z,5.60
2019-02-10T07:24:02.057Z,5.70
2019-02-10T07:26:54.187Z,5.80
2019-02-10T07:30:03.268Z,5.90
2019-02-10T07:32:39.527Z,6.00
2019-02-10T07:35:41.558Z,6.10
2019-02-10T07:38:28.702Z,6.10
2019-02-10T07:41:36.218Z,6.10
2019-02-10T07:44:37.908Z,6.20
2019-02-10T07:47:33.554Z,6.40
2019-02-10T07:50:51.768Z,6.50
2019-02-10T07:53:53.814Z,6.60
2019-02-10T07:56:45.295Z,6.60
2019-02-10T08:00:09.948Z,6.60
2019-02-10T08:03:16.287Z,6.60
2019-02-10T08:06:18.436Z,6.80
2019-02-10T08:09:34.244Z,6.80
2019-02-10T08:12:27.983Z,6.80
2019-02-10T08:15:11.357Z,6.90
2019-02-10T08:18:03.691Z,6.90
2019-02-10T08:20:51.672Z,7.00
2019-02-10T08:24:12.467Z,7.00
2019-02-10T08:27:17.077Z,7.10
2019-02-10T08:29:53.950Z,7.10
2019-02-10T08:32:32.135Z,7.10
2019-02-10T08:35:39.740Z,7.20
2019-02-10T08:38:54.617Z,7.20
2019-02-10T08:41:33.800Z,7.30
2019-02-10T08:44:16.358Z,7.40
2019-02-10T08:46:58.075Z,7.40
2019-02-10T08:50:02.476Z,7.40
2019-02-10T08:52:35.890Z,7.40
2019-02-10T08:55:04.878Z,7.40
2019-02-10T08:57:33.667Z,7.40
2019-02-10T09:00:02.660Z,7.40
2019-02-10T09:02:31.394Z,7.40
2019-02-10T09:05:00.224Z,7.40
2019-02-10T09:07:29.306Z,7.40
2019-02-10T09:09:58.071Z,7.50
2019-02-10T09:12:26.851Z,7.50
2019-02-10T09:14:55.698Z,7.50
2019-02-10T09:17:24.510Z,7.50
2019-02-10T09:19:53.303Z,7.60
2019-02-10T09:22:22.260Z,7.60
2019-02-10T09:24:51.039Z,7.50
2019-02-10T09:27:19.842Z,7.50
2019-02-10T09:29:49.113Z,7.60
2019-02-10T09:32:17.910Z,7.70
2019-02-10T09:34:46.662Z,7.70
2019-02-10T09:37:15.714Z,7.70
2019-02-10T09:39:44.800Z,7.70
2019-02-10T09:42:13.571Z,7.70
2019-02-10T09:44:42.915Z,7.80
2019-02-10T09:47:11.675Z,7.80
2019-02-10T09:49:40.668Z,7.80
2019-02-10T09:52:10.394Z,7.90
2019-02-10T09:54:39.391Z,7.90
2019-02-10T09:57:08.199Z,7.90
2019-02-10T09:59:36.943Z,7.90
2019-02-10T10:02:05.688Z,7.90
2019-02-10T10:04:34.467Z,7.90
2019-02-10T10:07:03.279Z,7.90
2019-02-10T10:09:32.099Z,7.90
2019-02-10T10:12:01.135Z,7.90
2019-02-10T10:14:31.052Z,7.90
2019-02-10T10:17:00.027Z,8.00
2019-02-10T10:19:28.762Z,7.90
2019-02-10T10:21:57.551Z,7.90
2019-02-10T10:24:26.350Z,7.90
2019-02-10T10:26:55.088Z,8.00
2019-02-10T10:29:23.846Z,8.00
2019-02-10T10:31:52.626Z,8.10
2019-02-10T10:34:21.372Z,8.10
2019-02-10T10:36:50.137Z,8.10
2019-02-10T10:39:26.952Z,8.10
2019-02-10T10:41:49.364Z,8.10
2019-02-10T10:44:18.139Z,8.20
2019-02-10T10:46:46.929Z,8.20
2019-02-10T10:49:15.835Z,8.20
2019-02-10T10:51:44.669Z,8.20
2019-02-10T10:54:13.638Z,8.30
2019-02-10T10:56:42.646Z,8.20
2019-02-10T10:59:11.399Z,8.10
2019-02-10T11:01:40.130Z,8.10
2019-02-10T11:04:08.900Z,8.10
2019-02-10T11:06:37.760Z,8.10
2019-02-10T11:09:07.228Z,8.10
2019-02-10T11:11:35.998Z,8.10
2019-02-10T11:14:05.119Z,8.10
2019-02-10T11:16:33.872Z,8.10
2019-02-10T11:19:03.131Z,8.10
2019-02-10T11:21:31.931Z,8.10
2019-02-10T11:24:00.750Z,8.00
2019-02-10T11:26:29.762Z,8.00
2019-02-10T11:28:58.611Z,8.00
2019-02-10T11:31:27.343Z,8.00
2019-02-10T11:33:56.363Z,8.00
2019-02-10T11:36:25.097Z,8.00
2019-02-10T11:38:54.115Z,7.90
2019-02-10T11:41:23.103Z,8.00
2019-02-10T11:43:51.891Z,8.00
2019-02-10T14:23:36.278Z,8.90
2019-02-10T14:49:21.592Z,9.20
2019-02-10T15:07:50.387Z,9.30
2019-02-10T15:15:40.904Z,9.30
2019-02-10T15:39:17.680Z,9.40
2019-02-10T15:51:01.918Z,9.60
2019-02-10T15:54:05.612Z,9.70
2019-02-10T15:58:04.073Z,9.90
2019-02-10T16:08:52.663Z,10.00
2019-02-10T16:15:49.923Z,10.10
2019-02-10T16:21:37.383Z,10.20
2019-02-10T16:23:30.397Z,10.30
2019-02-10T16:28:06.352Z,10.30
2019-02-10T16:29:39.370Z,10.30
2019-02-10T16:36:26.938Z,10.30
2019-02-10T16:40:25.893Z,10.50
2019-02-10T16:43:42.929Z,10.40
2019-02-10T16:57:58.213Z,10.40
2019-02-10T17:01:53.448Z,10.50
2019-02-10T17:07:16.091Z,10.50
2019-02-10T17:10:36.135Z,10.40
2019-02-10T17:19:59.685Z,10.40
2019-02-10T17:20:22.668Z,10.40
2019-02-10T17:23:20.153Z,10.40
2019-02-10T17:29:29.410Z,10.40
2019-02-10T17:35:32.237Z,10.40
2019-02-10T17:39:54.590Z,10.30
2019-02-10T17:42:09.254Z,10.40
2019-02-10T17:44:45.345Z,10.50
2019-02-10T17:47:40.891Z,10.40
2019-02-10T17:51:16.495Z,10.40
2019-02-10T17:53:41.070Z,10.40
2019-02-10T17:56:10.456Z,10.40
2019-02-10T17:58:41.554Z,10.40
2019-02-10T18:01:16.680Z,10.40
2019-02-10T18:03:48.817Z,10.40
2019-02-10T18:06:18.148Z,10.40
2019-02-10T18:08:51.888Z,10.40
2019-02-10T18:11:21.511Z,10.40
2019-02-10T18:14:00.657Z,10.40
2019-02-10T18:17:00.534Z,10.40
2019-02-10T18:19:44.511Z,10.30
2019-02-10T18:22:36.396Z,10.30
2019-02-10T18:25:16.443Z,10.20
2019-02-10T18:28:19.800Z,10.30
2019-02-10T18:31:09.642Z,10.20
2019-02-10T18:33:48.480Z,10.20
2019-02-10T18:36:48.803Z,10.20
2019-02-10T18:39:36.448Z,10.10
2019-02-10T18:42:11.611Z,10.00
2019-02-10T18:44:55.762Z,10.00
2019-02-10T18:47:48.217Z,9.90
